sensor_id;sensor_type;location;lat;lon;timestamp;pressure;altitude;pressure_sealevel;temperature;humidity
76195;BME280;64964;48.694;21.206;2024-01-11T00:00:04;99190.84;;;-3.70;50.25
76195;BME280;64964;48.694;21.206;2024-01-11T00:02:30;99183.09;;;-3.70;50.17
76195;BME280;64964;48.694;21.206;2024-01-11T00:04:55;99170.50;;;-3.81;50.22
76195;BME280;64964;48.694;21.206;2024-01-11T00:07:21;99170.50;;;-3.79;49.86
76195;BME280;64964;48.694;21.206;2024-01-11T00:09:46;99170.41;;;-3.76;50.52
76195;BME280;64964;48.694;21.206;2024-01-11T00:12:11;99163.63;;;-3.80;50.34
76195;BME280;64964;48.694;21.206;2024-01-11T00:14:37;99172.22;;;-3.80;50.53
76195;BME280;64964;48.694;21.206;2024-01-11T00:17:02;99162.00;;;-3.83;50.33
76195;BME280;64964;48.694;21.206;2024-01-11T00:19:28;99151.84;;;-3.89;50.51
76195;BME280;64964;48.694;21.206;2024-01-11T00:21:53;99143.47;;;-3.95;50.44
76195;BME280;64964;48.694;21.206;2024-01-11T00:24:18;99148.38;;;-3.88;50.88
76195;BME280;64964;48.694;21.206;2024-01-11T00:26:44;99150.06;;;-3.87;50.42
76195;BME280;64964;48.694;21.206;2024-01-11T00:29:10;99149.16;;;-3.86;50.64
76195;BME280;64964;48.694;21.206;2024-01-11T00:31:35;99141.47;;;-3.87;50.72
76195;BME280;64964;48.694;21.206;2024-01-11T00:34:01;99145.75;;;-3.86;50.70
76195;BME280;64964;48.694;21.206;2024-01-11T00:36:26;99134.50;;;-3.85;50.50
76195;BME280;64964;48.694;21.206;2024-01-11T00:38:53;99141.41;;;-3.86;50.52
76195;BME280;64964;48.694;21.206;2024-01-11T00:41:18;99142.09;;;-3.81;50.52
76195;BME280;64964;48.694;21.206;2024-01-11T00:43:44;99132.66;;;-3.82;50.38
76195;BME280;64964;48.694;21.206;2024-01-11T00:46:09;99128.47;;;-3.84;50.53
76195;BME280;64964;48.694;21.206;2024-01-11T00:48:34;99125.13;;;-3.88;50.55
76195;BME280;64964;48.694;21.206;2024-01-11T00:51:00;99128.50;;;-3.86;50.76
76195;BME280;64964;48.694;21.206;2024-01-11T00:53:25;99124.25;;;-3.87;50.51
76195;BME280;64964;48.694;21.206;2024-01-11T00:55:56;99115.59;;;-3.86;50.92
76195;BME280;64964;48.694;21.206;2024-01-11T00:58:21;99117.25;;;-3.85;50.88
76195;BME280;64964;48.694;21.206;2024-01-11T01:00:46;99112.91;;;-3.83;50.72
76195;BME280;64964;48.694;21.206;2024-01-11T01:03:12;99113.75;;;-3.82;50.67
76195;BME280;64964;48.694;21.206;2024-01-11T01:05:37;99102.56;;;-3.83;50.74
76195;BME280;64964;48.694;21.206;2024-01-11T01:08:03;99108.50;;;-3.81;50.65
76195;BME280;64964;48.694;21.206;2024-01-11T01:10:28;99106.84;;;-3.82;50.70
76195;BME280;64964;48.694;21.206;2024-01-11T01:12:54;99098.19;;;-3.81;50.92
76195;BME280;64964;48.694;21.206;2024-01-11T01:15:19;99095.56;;;-3.79;50.93
76195;BME280;64964;48.694;21.206;2024-01-11T01:17:44;99093.81;;;-3.79;50.81
76195;BME280;64964;48.694;21.206;2024-01-11T01:20:10;99097.16;;;-3.75;50.85
76195;BME280;64964;48.694;21.206;2024-01-11T01:22:36;99087.72;;;-3.76;50.95
76195;BME280;64964;48.694;21.206;2024-01-11T01:25:01;99085.06;;;-3.74;50.96
76195;BME280;64964;48.694;21.206;2024-01-11T01:27:26;99078.97;;;-3.72;50.93
76195;BME280;64964;48.694;21.206;2024-01-11T01:29:52;99083.22;;;-3.71;50.86
76195;BME280;64964;48.694;21.206;2024-01-11T01:32:17;99078.91;;;-3.70;50.91
76195;BME280;64964;48.694;21.206;2024-01-11T01:34:42;99074.50;;;-3.68;50.88
76195;BME280;64964;48.694;21.206;2024-01-11T01:37:08;99066.75;;;-3.68;50.76
76195;BME280;64964;48.694;21.206;2024-01-11T01:39:37;99060.00;;;-3.72;50.76
76195;BME280;64964;48.694;21.206;2024-01-11T01:42:03;99057.50;;;-3.74;50.69
76195;BME280;64964;48.694;21.206;2024-01-11T01:44:28;99050.56;;;-3.73;50.74
76195;BME280;64964;48.694;21.206;2024-01-11T01:46:54;99052.25;;;-3.72;50.68
76195;BME280;64964;48.694;21.206;2024-01-11T01:49:20;99045.50;;;-3.77;50.68
76195;BME280;64964;48.694;21.206;2024-01-11T01:51:47;99048.84;;;-3.73;50.51
76195;BME280;64964;48.694;21.206;2024-01-11T01:54:13;99056.41;;;-3.68;50.58
76195;BME280;64964;48.694;21.206;2024-01-11T01:56:39;99050.53;;;-3.72;50.69
76195;BME280;64964;48.694;21.206;2024-01-11T01:59:04;99051.97;;;-3.65;50.75
76195;BME280;64964;48.694;21.206;2024-01-11T02:01:30;99048.66;;;-3.68;50.61
76195;BME280;64964;48.694;21.206;2024-01-11T02:03:56;99055.72;;;-3.72;50.86
76195;BME280;64964;48.694;21.206;2024-01-11T02:06:25;99060.06;;;-3.74;50.88
76195;BME280;64964;48.694;21.206;2024-01-11T02:08:52;99056.72;;;-3.76;50.67
76195;BME280;64964;48.694;21.206;2024-01-11T02:11:20;99044.22;;;-3.88;50.89
76195;BME280;64964;48.694;21.206;2024-01-11T02:13:46;99040.09;;;-3.94;50.94
76195;BME280;64964;48.694;21.206;2024-01-11T02:16:12;99053.75;;;-3.90;51.04
76195;BME280;64964;48.694;21.206;2024-01-11T02:18:38;99053.00;;;-3.94;51.21
76195;BME280;64964;48.694;21.206;2024-01-11T02:21:06;99037.16;;;-4.08;51.13
76195;BME280;64964;48.694;21.206;2024-01-11T02:23:36;99043.84;;;-4.03;51.22
76195;BME280;64964;48.694;21.206;2024-01-11T02:26:01;99042.22;;;-4.05;51.08
76195;BME280;64964;48.694;21.206;2024-01-11T02:28:27;99045.81;;;-4.09;51.27
76195;BME280;64964;48.694;21.206;2024-01-11T02:30:52;99046.91;;;-4.16;51.33
76195;BME280;64964;48.694;21.206;2024-01-11T02:33:17;99042.75;;;-4.20;51.39
76195;BME280;64964;48.694;21.206;2024-01-11T02:35:43;99041.16;;;-4.24;51.70
76195;BME280;64964;48.694;21.206;2024-01-11T02:38:09;99042.16;;;-4.29;51.59
76195;BME280;64964;48.694;21.206;2024-01-11T02:40:35;99035.47;;;-4.34;51.84
76195;BME280;64964;48.694;21.206;2024-01-11T02:43:09;99033.88;;;-4.38;52.05
76195;BME280;64964;48.694;21.206;2024-01-11T02:45:35;99030.47;;;-4.39;51.74
76195;BME280;64964;48.694;21.206;2024-01-11T02:48:00;99015.38;;;-4.51;52.25
76195;BME280;64964;48.694;21.206;2024-01-11T02:50:26;99025.44;;;-4.43;51.84
76195;BME280;64964;48.694;21.206;2024-01-11T02:52:51;99039.28;;;-4.46;52.07
76195;BME280;64964;48.694;21.206;2024-01-11T02:55:16;99001.00;;;-4.58;52.16
76195;BME280;64964;48.694;21.206;2024-01-11T02:57:42;99021.22;;;-4.46;52.15
76195;BME280;64964;48.694;21.206;2024-01-11T03:00:07;99023.75;;;-4.44;51.89
76195;BME280;64964;48.694;21.206;2024-01-11T03:02:33;99007.50;;;-4.48;51.98
76195;BME280;64964;48.694;21.206;2024-01-11T03:04:58;99027.97;;;-4.42;51.90
76195;BME280;64964;48.694;21.206;2024-01-11T03:07:24;99021.97;;;-4.42;51.91
76195;BME280;64964;48.694;21.206;2024-01-11T03:09:49;99024.56;;;-4.42;51.92
76195;BME280;64964;48.694;21.206;2024-01-11T03:12:14;99021.13;;;-4.43;52.06
76195;BME280;64964;48.694;21.206;2024-01-11T03:14:40;99005.19;;;-4.56;52.09
76195;BME280;64964;48.694;21.206;2024-01-11T03:17:05;99005.06;;;-4.51;52.18
76195;BME280;64964;48.694;21.206;2024-01-11T03:19:30;99019.44;;;-4.44;52.23
76195;BME280;64964;48.694;21.206;2024-01-11T03:21:56;99019.56;;;-4.47;52.12
76195;BME280;64964;48.694;21.206;2024-01-11T03:24:21;98962.03;;;-4.77;51.94
76195;BME280;64964;48.694;21.206;2024-01-11T03:26:47;99007.59;;;-4.49;52.12
76195;BME280;64964;48.694;21.206;2024-01-11T03:29:13;99004.16;;;-4.50;52.04
76195;BME280;64964;48.694;21.206;2024-01-11T03:31:38;99003.31;;;-4.51;52.24
76195;BME280;64964;48.694;21.206;2024-01-11T03:34:07;99003.31;;;-4.51;52.33
76195;BME280;64964;48.694;21.206;2024-01-11T03:36:32;99002.34;;;-4.48;52.20
76195;BME280;64964;48.694;21.206;2024-01-11T03:38:57;99005.75;;;-4.46;52.15
76195;BME280;64964;48.694;21.206;2024-01-11T03:41:23;99004.06;;;-4.47;52.17
76195;BME280;64964;48.694;21.206;2024-01-11T03:43:49;99004.09;;;-4.48;52.23
76195;BME280;64964;48.694;21.206;2024-01-11T03:46:15;99004.16;;;-4.50;52.23
76195;BME280;64964;48.694;21.206;2024-01-11T03:48:40;98991.56;;;-4.59;52.63
76195;BME280;64964;48.694;21.206;2024-01-11T03:51:06;98981.53;;;-4.68;52.47
76195;BME280;64964;48.694;21.206;2024-01-11T03:53:34;98926.88;;;-5.06;52.64
76195;BME280;64964;48.694;21.206;2024-01-11T03:56:00;98992.75;;;-4.69;52.60
76195;BME280;64964;48.694;21.206;2024-01-11T03:58:26;98981.53;;;-4.68;52.76
76195;BME280;64964;48.694;21.206;2024-01-11T04:00:51;98994.34;;;-4.65;52.82
76195;BME280;64964;48.694;21.206;2024-01-11T04:03:17;98995.22;;;-4.66;52.58
76195;BME280;64964;48.694;21.206;2024-01-11T04:05:42;98993.50;;;-4.66;52.58
76195;BME280;64964;48.694;21.206;2024-01-11T04:08:08;98981.53;;;-4.68;52.64
76195;BME280;64964;48.694;21.206;2024-01-11T04:10:33;98975.66;;;-4.72;52.66
76195;BME280;64964;48.694;21.206;2024-01-11T04:12:59;98968.00;;;-4.75;52.57
76195;BME280;64964;48.694;21.206;2024-01-11T04:15:25;98987.50;;;-4.66;52.59
76195;BME280;64964;48.694;21.206;2024-01-11T04:17:50;98991.91;;;-4.70;52.89
76195;BME280;64964;48.694;21.206;2024-01-11T04:20:15;98969.75;;;-4.76;52.81
76195;BME280;64964;48.694;21.206;2024-01-11T04:22:41;98970.34;;;-4.67;52.82
76195;BME280;64964;48.694;21.206;2024-01-11T04:25:07;98971.13;;;-4.65;52.70
76195;BME280;64964;48.694;21.206;2024-01-11T04:27:32;98969.44;;;-4.66;52.61
76195;BME280;64964;48.694;21.206;2024-01-11T04:29:57;98964.88;;;-4.58;52.63
76195;BME280;64964;48.694;21.206;2024-01-11T04:32:23;98965.66;;;-4.56;52.82
76195;BME280;64964;48.694;21.206;2024-01-11T04:34:48;98973.28;;;-4.53;52.62
76195;BME280;64964;48.694;21.206;2024-01-11T04:37:13;98957.28;;;-4.63;52.41
76195;BME280;64964;48.694;21.206;2024-01-11T04:39:39;98964.13;;;-4.62;52.38
76195;BME280;64964;48.694;21.206;2024-01-11T04:42:04;98956.38;;;-4.62;52.69
76195;BME280;64964;48.694;21.206;2024-01-11T04:44:30;98956.97;;;-4.54;52.49
76195;BME280;64964;48.694;21.206;2024-01-11T04:46:55;98964.72;;;-4.54;52.37
76195;BME280;64964;48.694;21.206;2024-01-11T04:49:20;98968.22;;;-4.56;52.19
76195;BME280;64964;48.694;21.206;2024-01-11T04:51:46;98963.13;;;-4.58;52.67
76195;BME280;64964;48.694;21.206;2024-01-11T04:54:11;98967.34;;;-4.55;52.71
76195;BME280;64964;48.694;21.206;2024-01-11T04:56:36;98976.09;;;-4.59;52.50
76195;BME280;64964;48.694;21.206;2024-01-11T04:59:02;98973.38;;;-4.56;52.12
76195;BME280;64964;48.694;21.206;2024-01-11T05:01:27;98968.28;;;-4.58;52.34
76195;BME280;64964;48.694;21.206;2024-01-11T05:03:52;98968.28;;;-4.58;52.42
76195;BME280;64964;48.694;21.206;2024-01-11T05:06:20;98960.47;;;-4.56;52.63
76195;BME280;64964;48.694;21.206;2024-01-11T05:08:47;98962.13;;;-4.54;52.65
76195;BME280;64964;48.694;21.206;2024-01-11T05:11:21;98965.50;;;-4.52;52.66
76195;BME280;64964;48.694;21.206;2024-01-11T05:13:48;98953.31;;;-4.48;52.33
76195;BME280;64964;48.694;21.206;2024-01-11T05:16:21;98961.03;;;-4.46;52.68
76195;BME280;64964;48.694;21.206;2024-01-11T05:18:47;98959.22;;;-4.44;52.29
76195;BME280;64964;48.694;21.206;2024-01-11T05:21:13;98949.00;;;-4.47;52.37
76195;BME280;64964;48.694;21.206;2024-01-11T05:23:40;98928.84;;;-4.61;52.63
76195;BME280;64964;48.694;21.206;2024-01-11T05:26:06;98950.59;;;-4.43;52.35
76195;BME280;64964;48.694;21.206;2024-01-11T05:28:32;98952.22;;;-4.41;52.31
76195;BME280;64964;48.694;21.206;2024-01-11T05:30:57;98950.59;;;-4.43;52.47
76195;BME280;64964;48.694;21.206;2024-01-11T05:33:22;98951.38;;;-4.41;52.15
76195;BME280;64964;48.694;21.206;2024-01-11T05:35:49;98947.97;;;-4.42;52.41
76195;BME280;64964;48.694;21.206;2024-01-11T05:38:14;98951.47;;;-4.43;52.13
76195;BME280;64964;48.694;21.206;2024-01-11T05:40:39;98954.03;;;-4.43;52.48
76195;BME280;64964;48.694;21.206;2024-01-11T05:43:05;98938.41;;;-4.40;52.61
76195;BME280;64964;48.694;21.206;2024-01-11T05:45:31;98930.69;;;-4.40;52.42
76195;BME280;64964;48.694;21.206;2024-01-11T05:47:56;98921.94;;;-4.36;52.37
76195;BME280;64964;48.694;21.206;2024-01-11T05:50:21;98916.75;;;-4.34;52.37
76195;BME280;64964;48.694;21.206;2024-01-11T05:52:47;98909.84;;;-4.34;52.26
76195;BME280;64964;48.694;21.206;2024-01-11T05:55:12;98918.31;;;-4.30;52.41
76195;BME280;64964;48.694;21.206;2024-01-11T05:57:38;98921.78;;;-4.31;52.34
76195;BME280;64964;48.694;21.206;2024-01-11T06:00:04;98922.69;;;-4.32;52.12
76195;BME280;64964;48.694;21.206;2024-01-11T06:02:30;98917.00;;;-4.42;51.92
76195;BME280;64964;48.694;21.206;2024-01-11T06:04:57;98933.22;;;-4.38;52.17
76195;BME280;64964;48.694;21.206;2024-01-11T06:07:22;98920.47;;;-4.43;52.25
76195;BME280;64964;48.694;21.206;2024-01-11T06:09:47;98922.34;;;-4.48;52.06
76195;BME280;64964;48.694;21.206;2024-01-11T06:12:13;98919.00;;;-4.50;52.51
76195;BME280;64964;48.694;21.206;2024-01-11T06:14:39;98903.53;;;-4.50;52.43
76195;BME280;64964;48.694;21.206;2024-01-11T06:17:04;98899.13;;;-4.48;52.44
76195;BME280;64964;48.694;21.206;2024-01-11T06:19:29;98884.38;;;-4.44;52.58
76195;BME280;64964;48.694;21.206;2024-01-11T06:21:55;98887.78;;;-4.42;52.18
76195;BME280;64964;48.694;21.206;2024-01-11T06:24:20;98876.63;;;-4.43;52.29
76195;BME280;64964;48.694;21.206;2024-01-11T06:26:45;98882.47;;;-4.39;52.35
76195;BME280;64964;48.694;21.206;2024-01-11T06:29:11;98878.13;;;-4.37;52.41
76195;BME280;64964;48.694;21.206;2024-01-11T06:31:36;98884.13;;;-4.37;52.30
76195;BME280;64964;48.694;21.206;2024-01-11T06:34:01;98856.19;;;-4.49;52.34
76195;BME280;64964;48.694;21.206;2024-01-11T06:36:27;98888.28;;;-4.33;52.52
76195;BME280;64964;48.694;21.206;2024-01-11T06:38:53;98875.31;;;-4.31;52.44
76195;BME280;64964;48.694;21.206;2024-01-11T06:41:18;98861.63;;;-4.33;52.47
76195;BME280;64964;48.694;21.206;2024-01-11T06:43:43;98864.88;;;-4.28;52.41
76195;BME280;64964;48.694;21.206;2024-01-11T06:46:09;98866.63;;;-4.29;52.43
76195;BME280;64964;48.694;21.206;2024-01-11T06:48:35;98868.25;;;-4.26;52.33
76195;BME280;64964;48.694;21.206;2024-01-11T06:51:01;98873.34;;;-4.24;52.41
76195;BME280;64964;48.694;21.206;2024-01-11T06:53:26;98872.53;;;-4.25;52.33
76195;BME280;64964;48.694;21.206;2024-01-11T06:55:52;98860.63;;;-4.29;52.48
76195;BME280;64964;48.694;21.206;2024-01-11T06:58:20;98846.19;;;-4.35;52.51
76195;BME280;64964;48.694;21.206;2024-01-11T07:00:47;98860.34;;;-4.21;52.51
76195;BME280;64964;48.694;21.206;2024-01-11T07:03:14;98863.88;;;-4.24;52.65
76195;BME280;64964;48.694;21.206;2024-01-11T07:05:40;98867.97;;;-4.18;52.77
76195;BME280;64964;48.694;21.206;2024-01-11T07:08:05;98869.59;;;-4.16;52.69
76195;BME280;64964;48.694;21.206;2024-01-11T07:10:31;98871.28;;;-4.15;53.34
76195;BME280;64964;48.694;21.206;2024-01-11T07:12:57;98845.81;;;-4.24;52.74
76195;BME280;64964;48.694;21.206;2024-01-11T07:15:22;98853.38;;;-4.19;52.93
76195;BME280;64964;48.694;21.206;2024-01-11T07:17:48;98855.69;;;-4.12;53.14
76195;BME280;64964;48.694;21.206;2024-01-11T07:20:14;98855.56;;;-4.09;53.16
76195;BME280;64964;48.694;21.206;2024-01-11T07:22:41;98863.91;;;-4.02;53.27
76195;BME280;64964;48.694;21.206;2024-01-11T07:25:07;98861.22;;;-3.99;53.05
76195;BME280;64964;48.694;21.206;2024-01-11T07:27:32;98855.94;;;-3.96;53.20
76195;BME280;64964;48.694;21.206;2024-01-11T07:29:58;98843.97;;;-3.98;53.35
76195;BME280;64964;48.694;21.206;2024-01-11T07:32:23;98845.38;;;-3.90;53.23
76195;BME280;64964;48.694;21.206;2024-01-11T07:34:49;98828.84;;;-3.86;53.39
76195;BME280;64964;48.694;21.206;2024-01-11T07:37:14;98833.13;;;-3.85;53.39
76195;BME280;64964;48.694;21.206;2024-01-11T07:39:39;98838.00;;;-3.77;53.14
76195;BME280;64964;48.694;21.206;2024-01-11T07:42:05;98830.06;;;-3.72;53.30
76195;BME280;64964;48.694;21.206;2024-01-11T07:44:30;98813.72;;;-3.73;53.45
76195;BME280;64964;48.694;21.206;2024-01-11T07:46:56;98819.31;;;-3.62;53.30
76195;BME280;64964;48.694;21.206;2024-01-11T07:49:21;98797.38;;;-3.73;53.14
76195;BME280;64964;48.694;21.206;2024-01-11T07:51:46;98823.19;;;-3.52;53.25
76195;BME280;64964;48.694;21.206;2024-01-11T07:54:12;98821.28;;;-3.46;53.24
76195;BME280;64964;48.694;21.206;2024-01-11T07:56:37;98762.53;;;-3.85;53.60
76195;BME280;64964;48.694;21.206;2024-01-11T07:59:02;98820.91;;;-3.37;53.49
76195;BME280;64964;48.694;21.206;2024-01-11T08:01:28;98808.56;;;-3.31;53.19
76195;BME280;64964;48.694;21.206;2024-01-11T08:03:53;98823.38;;;-3.14;53.75
76195;BME280;64964;48.694;21.206;2024-01-11T08:06:19;98820.00;;;-2.55;54.12
76195;BME280;64964;48.694;21.206;2024-01-11T08:08:44;98813.88;;;-1.59;52.92
76195;BME280;64964;48.694;21.206;2024-01-11T08:11:10;98806.38;;;-0.61;51.79
76195;BME280;64964;48.694;21.206;2024-01-11T08:13:38;98806.78;;;0.43;50.47
76195;BME280;64964;48.694;21.206;2024-01-11T08:16:04;98777.53;;;1.29;48.66
76195;BME280;64964;48.694;21.206;2024-01-11T08:18:32;98779.47;;;2.23;47.81
76195;BME280;64964;48.694;21.206;2024-01-11T08:20:57;98771.34;;;3.08;47.02
76195;BME280;64964;48.694;21.206;2024-01-11T08:23:23;98758.75;;;3.89;45.82
76195;BME280;64964;48.694;21.206;2024-01-11T08:25:49;98749.00;;;4.63;43.92
76195;BME280;64964;48.694;21.206;2024-01-11T08:28:14;98746.19;;;5.24;42.85
76195;BME280;64964;48.694;21.206;2024-01-11T08:30:39;98751.69;;;5.77;39.59
76195;BME280;64964;48.694;21.206;2024-01-11T08:33:05;98769.53;;;6.28;40.12
76195;BME280;64964;48.694;21.206;2024-01-11T08:35:30;98776.88;;;6.78;39.52
76195;BME280;64964;48.694;21.206;2024-01-11T08:37:57;98774.44;;;7.28;38.89
76195;BME280;64964;48.694;21.206;2024-01-11T08:40:22;98778.56;;;7.51;37.08
76195;BME280;64964;48.694;21.206;2024-01-11T08:42:48;98782.53;;;7.66;37.80
76195;BME280;64964;48.694;21.206;2024-01-11T08:45:13;98747.91;;;7.61;36.72
76195;BME280;64964;48.694;21.206;2024-01-11T08:47:46;98755.84;;;7.19;36.37
76195;BME280;64964;48.694;21.206;2024-01-11T08:50:15;98741.41;;;6.08;36.95
76195;BME280;64964;48.694;21.206;2024-01-11T08:52:41;98754.19;;;4.87;38.16
76195;BME280;64964;48.694;21.206;2024-01-11T08:55:07;98763.22;;;3.87;39.91
76195;BME280;64964;48.694;21.206;2024-01-11T08:57:33;98765.09;;;3.10;41.05
76195;BME280;64964;48.694;21.206;2024-01-11T09:00:01;98770.94;;;2.61;42.18
76195;BME280;64964;48.694;21.206;2024-01-11T09:02:26;98748.03;;;2.12;42.22
76195;BME280;64964;48.694;21.206;2024-01-11T09:04:52;98727.28;;;1.69;43.21
76195;BME280;64964;48.694;21.206;2024-01-11T09:07:17;98733.44;;;1.40;44.12
76195;BME280;64964;48.694;21.206;2024-01-11T09:09:42;98750.09;;;1.09;44.49
76195;BME280;64964;48.694;21.206;2024-01-11T09:12:09;98750.78;;;0.82;45.42
76195;BME280;64964;48.694;21.206;2024-01-11T09:14:35;98731.19;;;0.46;46.31
76195;BME280;64964;48.694;21.206;2024-01-11T09:17:00;98750.00;;;0.36;46.76
76195;BME280;64964;48.694;21.206;2024-01-11T09:19:26;98735.94;;;0.24;47.25
76195;BME280;64964;48.694;21.206;2024-01-11T09:21:51;98727.41;;;0.06;47.80
76195;BME280;64964;48.694;21.206;2024-01-11T09:24:16;98719.72;;;-0.11;48.28
76195;BME280;64964;48.694;21.206;2024-01-11T09:26:42;98728.34;;;-0.11;48.44
76195;BME280;64964;48.694;21.206;2024-01-11T09:29:07;98727.94;;;-0.19;48.62
76195;BME280;64964;48.694;21.206;2024-01-11T09:31:32;98721.72;;;-0.32;48.97
76195;BME280;64964;48.694;21.206;2024-01-11T09:33:58;98714.19;;;-0.37;49.50
76195;BME280;64964;48.694;21.206;2024-01-11T09:36:23;98709.50;;;-0.46;49.70
76195;BME280;64964;48.694;21.206;2024-01-11T09:38:48;98724.91;;;-0.43;49.47
76195;BME280;64964;48.694;21.206;2024-01-11T09:41:14;98700.41;;;-0.55;49.69
76195;BME280;64964;48.694;21.206;2024-01-11T09:43:43;98702.13;;;-0.54;49.65
76195;BME280;64964;48.694;21.206;2024-01-11T09:46:10;98719.03;;;-0.46;49.70
76195;BME280;64964;48.694;21.206;2024-01-11T09:48:38;98654.41;;;-0.84;49.85
76195;BME280;64964;48.694;21.206;2024-01-11T09:51:08;98718.72;;;-0.40;49.78
76195;BME280;64964;48.694;21.206;2024-01-11T09:53:36;98702.53;;;-0.30;49.52
76195;BME280;64964;48.694;21.206;2024-01-11T09:56:07;98661.56;;;-0.40;49.11
76195;BME280;64964;48.694;21.206;2024-01-11T09:58:34;98696.50;;;-0.14;49.23
76195;BME280;64964;48.694;21.206;2024-01-11T10:01:02;98707.81;;;0.01;49.43
76195;BME280;64964;48.694;21.206;2024-01-11T10:03:28;98690.25;;;0.04;49.28
76195;BME280;64964;48.694;21.206;2024-01-11T10:05:57;98636.06;;;-0.18;48.96
76195;BME280;64964;48.694;21.206;2024-01-11T10:08:23;98691.16;;;0.19;49.23
76195;BME280;64964;48.694;21.206;2024-01-11T10:10:48;98703.03;;;0.39;49.27
76195;BME280;64964;48.694;21.206;2024-01-11T10:13:15;98649.56;;;0.19;49.34
76195;BME280;64964;48.694;21.206;2024-01-11T10:15:44;98661.59;;;0.50;49.21
76195;BME280;64964;48.694;21.206;2024-01-11T10:18:10;98682.06;;;0.70;49.32
76195;BME280;64964;48.694;21.206;2024-01-11T10:20:35;98677.34;;;0.77;49.30
76195;BME280;64964;48.694;21.206;2024-01-11T10:23:02;98691.88;;;0.95;49.05
76195;BME280;64964;48.694;21.206;2024-01-11T10:25:28;98676.06;;;0.98;48.77
76195;BME280;64964;48.694;21.206;2024-01-11T10:27:54;98692.06;;;1.07;48.93
76195;BME280;64964;48.694;21.206;2024-01-11T10:30:19;98679.41;;;1.15;48.65
76195;BME280;64964;48.694;21.206;2024-01-11T10:32:47;98672.25;;;1.18;48.80
76195;BME280;64964;48.694;21.206;2024-01-11T10:35:13;98661.19;;;1.15;48.04
76195;BME280;64964;48.694;21.206;2024-01-11T10:37:38;98677.66;;;1.15;48.32
76195;BME280;64964;48.694;21.206;2024-01-11T10:40:06;98678.59;;;1.14;48.39
76195;BME280;64964;48.694;21.206;2024-01-11T10:42:36;98620.91;;;0.92;48.39
76195;BME280;64964;48.694;21.206;2024-01-11T10:45:03;98661.25;;;1.28;47.99
76195;BME280;64964;48.694;21.206;2024-01-11T10:47:30;98660.31;;;1.29;48.37
76195;BME280;64964;48.694;21.206;2024-01-11T10:49:58;98559.41;;;0.77;48.38
76195;BME280;64964;48.694;21.206;2024-01-11T10:52:28;98630.94;;;1.27;48.14
76195;BME280;64964;48.694;21.206;2024-01-11T10:54:57;98637.44;;;1.34;48.30
76195;BME280;64964;48.694;21.206;2024-01-11T10:57:24;98628.06;;;1.31;48.02
76195;BME280;64964;48.694;21.206;2024-01-11T10:59:51;98618.75;;;1.27;47.85
76195;BME280;64964;48.694;21.206;2024-01-11T11:02:17;98623.13;;;1.27;48.00
76195;BME280;64964;48.694;21.206;2024-01-11T11:04:44;98615.16;;;1.15;47.98
76195;BME280;64964;48.694;21.206;2024-01-11T11:07:11;98605.03;;;0.96;48.11
76195;BME280;64964;48.694;21.206;2024-01-11T11:09:37;98599.56;;;0.72;48.39
76195;BME280;64964;48.694;21.206;2024-01-11T11:12:03;98585.16;;;0.53;48.64
76195;BME280;64964;48.694;21.206;2024-01-11T11:14:31;98597.22;;;0.39;48.76
76195;BME280;64964;48.694;21.206;2024-01-11T11:16:57;98574.53;;;0.13;49.33
76195;BME280;64964;48.694;21.206;2024-01-11T11:19:23;98584.06;;;0.12;49.62
76195;BME280;64964;48.694;21.206;2024-01-11T11:21:49;98577.63;;;0.04;49.74
76195;BME280;64964;48.694;21.206;2024-01-11T11:24:16;98598.69;;;-0.01;50.27
76195;BME280;64964;48.694;21.206;2024-01-11T11:26:42;98603.63;;;0.04;50.49
76195;BME280;64964;48.694;21.206;2024-01-11T11:29:08;98621.63;;;0.22;50.38
76195;BME280;64964;48.694;21.206;2024-01-11T11:31:35;98624.81;;;0.42;50.13
76195;BME280;64964;48.694;21.206;2024-01-11T11:34:01;98620.91;;;0.49;49.58
76195;BME280;64964;48.694;21.206;2024-01-11T11:36:29;98608.00;;;0.47;49.31
76195;BME280;64964;48.694;21.206;2024-01-11T11:38:56;98608.38;;;0.56;49.66
76195;BME280;64964;48.694;21.206;2024-01-11T11:41:26;98585.25;;;0.51;49.74
76195;BME280;64964;48.694;21.206;2024-01-11T11:43:51;98552.00;;;0.56;49.77
76195;BME280;64964;48.694;21.206;2024-01-11T11:46:16;98562.84;;;0.77;49.17
76195;BME280;64964;48.694;21.206;2024-01-11T11:48:52;98541.94;;;0.64;48.94
76195;BME280;64964;48.694;21.206;2024-01-11T11:51:22;98562.00;;;0.77;48.75
76195;BME280;64964;48.694;21.206;2024-01-11T11:53:49;98544.00;;;0.59;48.84
76195;BME280;64964;48.694;21.206;2024-01-11T11:56:19;98540.00;;;0.39;49.15
76195;BME280;64964;48.694;21.206;2024-01-11T11:58:46;98546.97;;;0.39;49.06
76195;BME280;64964;48.694;21.206;2024-01-11T12:01:14;98546.94;;;0.24;49.32
76195;BME280;64964;48.694;21.206;2024-01-11T12:03:41;98462.00;;;-0.34;49.53
76195;BME280;64964;48.694;21.206;2024-01-11T12:06:08;98517.66;;;-0.08;49.73
76195;BME280;64964;48.694;21.206;2024-01-11T12:08:36;98517.09;;;-0.13;49.88
76195;BME280;64964;48.694;21.206;2024-01-11T12:11:03;98512.25;;;-0.19;50.01
76195;BME280;64964;48.694;21.206;2024-01-11T12:13:28;98504.34;;;-0.32;50.42
76195;BME280;64964;48.694;21.206;2024-01-11T12:15:56;98508.56;;;-0.45;50.50
76195;BME280;64964;48.694;21.206;2024-01-11T12:18:22;98489.03;;;-0.66;50.96
76195;BME280;64964;48.694;21.206;2024-01-11T12:20:47;98460.63;;;-0.69;51.00
76195;BME280;64964;48.694;21.206;2024-01-11T12:23:12;98480.88;;;-0.60;51.16
76195;BME280;64964;48.694;21.206;2024-01-11T12:25:40;98459.38;;;-0.62;51.11
76195;BME280;64964;48.694;21.206;2024-01-11T12:28:06;98479.34;;;-0.48;51.20
76195;BME280;64964;48.694;21.206;2024-01-11T12:30:31;98473.16;;;-0.46;51.06
76195;BME280;64964;48.694;21.206;2024-01-11T12:32:59;98461.91;;;-0.46;51.00
76195;BME280;64964;48.694;21.206;2024-01-11T12:35:27;98476.22;;;-0.39;50.89
76195;BME280;64964;48.694;21.206;2024-01-11T12:38:00;98458.00;;;-0.54;51.06
76195;BME280;64964;48.694;21.206;2024-01-11T12:40:27;98478.47;;;-0.33;50.81
76195;BME280;64964;48.694;21.206;2024-01-11T12:42:52;98462.72;;;-0.16;50.08
76195;BME280;64964;48.694;21.206;2024-01-11T12:45:18;98455.81;;;-0.17;49.80